LJLJ METAR and TAF | Updated Today

LJLJ METAR

Ljubljana Jože Pučnik Airport

Observation time: 30 min. ago

LJLJ 291030Z 10007KT 070V140 9999 FEW003 BKN037 11/08 Q1010 NOSIG

Need help? Read our tutorial on how to read METARs or read the parsed version below.

Ljubljana Jože Pučnik Airport (LJLJ) METAR

  • Weather conditions on Sun, 29 May 2022 10:30:00 +0000 (30 min. ago):
  • Present conditions: Dry
  • Clouds: A few at 91 meters; broken sky at 1128 meters
  • Visibility: Greater than 10 km
  • Wind: 100 degrees at 7 knots
  • Temperature: 11 celsius
  • Dew point: 8 celsius
  • Pressure: 1010 millibars
  • Remarks: None


Useful to know...

LJLJ TAF

Ljubljana Jože Pučnik Airport

TAF LJLJ 290500Z 2906/3006 12005KT 9999 FEW010 SCT040 BKN050 TEMPO 2908/3000 -RA BECMG 3004/3006 RA
Observation time: 6:00 hr. ago
Need help? Read our tutorial on how to read TAFs or read the parsed version below.

Parsed version of TAF for Ljubljana Jože Pučnik Airport (LJLJ)

  • From 29 May at 06:00 UTC, to day 30 of the month at 06:00 UTC
  • Clouds: A few at 305 meters; scattered at 1219 meters; broken sky at 1524 meters
  • Visibility: Greater than 10 km
  • Wind: 120 degrees at 5
  • Expected to arise temporarily, from 29 May at 08:00 UTC, to day 30 of the month at 00:00 UTC
  • Other: Light rain
  • Expected to arise soon, from 30 May at 04:00 UTC, to day 30 of the month at 06:00 UTC
  • Other: Rain